createdAt,value
2023-01-13T00:00:59.232Z,2.400
2023-01-13T00:01:58.717Z,1.800
2023-01-13T00:03:58.877Z,0.800
2023-01-13T00:04:59.518Z,2.000
2023-01-13T00:05:59.313Z,1.300
2023-01-13T00:06:58.929Z,1.400
2023-01-13T00:07:58.453Z,1.200
2023-01-13T00:08:58.992Z,0.900
2023-01-13T00:09:58.506Z,0.900
2023-01-13T00:10:59.012Z,0.800
2023-01-13T00:11:58.517Z,0.800
2023-01-13T00:12:59.068Z,1.500
2023-01-13T00:14:59.055Z,1.500
2023-01-13T00:15:58.781Z,1.400
2023-01-13T00:16:59.315Z,1.200
2023-01-13T00:17:58.739Z,0.800
2023-01-13T00:19:58.673Z,1.000
2023-01-13T00:20:59.169Z,0.900
2023-01-13T00:21:58.657Z,0.900
2023-01-13T00:22:59.114Z,1.100
2023-01-13T00:24:59.098Z,0.900
2023-01-13T00:25:58.538Z,1.000
2023-01-13T00:26:59.005Z,0.900
2023-01-13T00:27:58.433Z,0.800
2023-01-13T00:28:58.937Z,1.200
2023-01-13T00:29:59.386Z,1.000
2023-01-13T00:30:58.970Z,1.000
2023-01-13T00:31:58.583Z,0.700
2023-01-13T00:32:58.993Z,0.800
2023-01-13T00:33:58.449Z,1.000
2023-01-13T00:35:59.376Z,1.000
2023-01-13T00:36:58.806Z,0.900
2023-01-13T00:37:59.286Z,1.000
2023-01-13T00:38:58.757Z,1.100
2023-01-13T00:39:59.349Z,1.200
2023-01-13T00:40:58.949Z,0.900
2023-01-13T00:41:58.376Z,0.800
2023-01-13T00:42:58.873Z,0.900
2023-01-13T00:43:59.409Z,0.900
2023-01-13T00:44:58.905Z,0.900
2023-01-13T00:45:58.432Z,0.900
2023-01-13T00:47:00.528Z,1.100
2023-01-13T00:47:58.736Z,1.600
2023-01-13T00:48:59.245Z,0.800
2023-01-13T00:49:58.746Z,1.200
2023-01-13T00:50:59.366Z,1.200
2023-01-13T00:51:59.933Z,0.900
2023-01-13T00:53:00.288Z,1.000
2023-01-13T00:53:58.906Z,1.100
2023-01-13T00:54:58.524Z,1.100
2023-01-13T00:55:59.015Z,1.200
2023-01-13T00:57:03.453Z,0.900
2023-01-13T00:57:58.909Z,1.200
2023-01-13T00:58:59.397Z,1.100
2023-01-13T00:59:58.830Z,1.100
2023-01-13T01:00:59.647Z,1.200
2023-01-13T01:02:00.036Z,1.100
2023-01-13T01:03:00.461Z,1.000
2023-01-13T01:03:59.061Z,1.000
2023-01-13T01:04:58.581Z,1.100
2023-01-13T01:05:59.069Z,1.100
2023-01-13T01:06:58.553Z,1.000
2023-01-13T01:07:59.048Z,0.800
2023-01-13T01:08:58.548Z,1.000
2023-01-13T01:09:59.050Z,0.900
2023-01-13T01:10:58.589Z,0.800
2023-01-13T01:11:59.101Z,1.100
2023-01-13T01:12:58.605Z,1.200
2023-01-13T01:13:59.252Z,1.100
2023-01-13T01:14:58.766Z,1.000
2023-01-13T01:15:59.456Z,0.900
2023-01-13T01:16:59.124Z,1.000
2023-01-13T01:17:58.632Z,1.200
2023-01-13T01:18:59.117Z,0.900
2023-01-13T01:19:58.680Z,0.800
2023-01-13T01:20:59.273Z,0.900
2023-01-13T01:21:58.777Z,1.000
2023-01-13T01:22:59.285Z,1.000
2023-01-13T01:23:58.813Z,1.100
2023-01-13T01:24:59.317Z,1.000
2023-01-13T01:25:58.831Z,0.900
2023-01-13T01:26:59.307Z,0.900
2023-01-13T01:27:58.854Z,1.000
2023-01-13T01:28:59.363Z,0.700
2023-01-13T01:29:58.840Z,0.900
2023-01-13T01:30:59.270Z,1.100
2023-01-13T01:31:59.047Z,1.100
2023-01-13T01:32:58.537Z,0.900
2023-01-13T01:33:59.009Z,0.800
2023-01-13T01:34:58.526Z,1.100
2023-01-13T01:35:58.932Z,1.000
2023-01-13T01:36:58.509Z,1.000
2023-01-13T01:37:58.930Z,1.000
2023-01-13T01:38:59.481Z,0.800
2023-01-13T01:39:59.093Z,0.900
2023-01-13T01:40:58.796Z,1.100
2023-01-13T01:41:59.262Z,0.800
2023-01-13T01:42:58.998Z,1.100
2023-01-13T01:43:58.582Z,1.000
2023-01-13T01:44:59.106Z,1.000
2023-01-13T01:46:59.403Z,1.000
2023-01-13T01:47:59.150Z,0.800
2023-01-13T01:48:58.858Z,1.100
2023-01-13T01:49:58.452Z,1.000
2023-01-13T01:50:58.950Z,0.700
2023-01-13T01:51:58.442Z,0.900
2023-01-13T01:52:58.924Z,1.000
2023-01-13T01:53:58.597Z,1.100
2023-01-13T01:54:59.084Z,0.800
2023-01-13T01:56:59.126Z,0.900
2023-01-13T01:57:58.761Z,0.900
2023-01-13T01:58:59.291Z,1.000
2023-01-13T01:59:58.682Z,0.900
2023-01-13T02:00:59.524Z,1.100
2023-01-13T02:01:59.574Z,0.900
2023-01-13T02:02:59.625Z,0.900
2023-01-13T02:03:59.120Z,1.100
2023-01-13T02:04:58.597Z,0.800
2023-01-13T02:05:59.056Z,0.700
2023-01-13T02:06:58.479Z,0.800
2023-01-13T02:07:59.114Z,0.900
2023-01-13T02:08:58.666Z,0.900
2023-01-13T02:09:59.176Z,1.000
2023-01-13T02:11:59.123Z,0.900
2023-01-13T02:12:58.748Z,1.000
2023-01-13T02:13:59.365Z,1.100
2023-01-13T02:14:59.113Z,0.900
2023-01-13T02:16:59.501Z,0.900
2023-01-13T02:17:59.252Z,0.900
2023-01-13T02:18:58.794Z,1.600
2023-01-13T02:19:59.273Z,0.800
2023-01-13T02:20:58.798Z,0.900
2023-01-13T02:21:59.357Z,1.000
2023-01-13T02:22:58.843Z,1.100
2023-01-13T02:23:59.425Z,0.800
2023-01-13T02:24:59.277Z,1.000
2023-01-13T02:25:59.329Z,1.000
2023-01-13T02:26:59.485Z,1.200
2023-01-13T02:28:59.069Z,0.700
2023-01-13T02:29:58.790Z,1.000
2023-01-13T02:32:00.134Z,0.800
2023-01-13T02:32:58.861Z,0.900
2023-01-13T02:33:59.295Z,1.200
2023-01-13T02:34:58.838Z,0.800
2023-01-13T02:36:58.999Z,1.000
2023-01-13T02:37:58.495Z,1.000
2023-01-13T02:38:58.925Z,0.900
2023-01-13T02:39:58.532Z,1.100
2023-01-13T02:40:58.999Z,1.000
2023-01-13T02:41:58.471Z,1.000
2023-01-13T02:42:59.030Z,0.900
2023-01-13T02:43:58.518Z,0.700
2023-01-13T02:44:59.044Z,0.900
2023-01-13T02:45:58.643Z,0.500
2023-01-13T02:46:58.596Z,0.900
2023-01-13T02:47:59.169Z,0.900
2023-01-13T02:48:58.832Z,1.000
2023-01-13T02:49:59.309Z,1.100
2023-01-13T02:50:59.824Z,0.800
2023-01-13T02:51:59.417Z,0.700
2023-01-13T02:52:59.041Z,1.000
2023-01-13T02:53:58.568Z,1.000
2023-01-13T02:54:59.074Z,0.600
2023-01-13T02:55:58.628Z,1.000
2023-01-13T02:56:59.214Z,0.800
2023-01-13T02:57:58.717Z,0.600
2023-01-13T02:58:59.161Z,0.800
2023-01-13T02:59:58.703Z,0.900
2023-01-13T03:00:59.832Z,0.900
2023-01-13T03:02:00.201Z,0.900
2023-01-13T03:02:59.469Z,0.800
2023-01-13T03:03:58.963Z,0.800
2023-01-13T03:04:58.533Z,0.900
2023-01-13T03:05:59.137Z,1.000
2023-01-13T03:06:58.679Z,0.900
2023-01-13T03:07:59.483Z,0.800
2023-01-13T03:09:59.106Z,0.700
2023-01-13T03:11:01.104Z,0.800
2023-01-13T03:11:58.698Z,0.800
2023-01-13T03:12:59.318Z,0.900
2023-01-13T03:13:59.082Z,0.700
2023-01-13T03:14:58.663Z,0.700
2023-01-13T03:16:59.062Z,0.700
2023-01-13T03:17:58.618Z,0.900
2023-01-13T03:19:58.794Z,0.900
2023-01-13T03:20:59.399Z,0.900
2023-01-13T03:21:58.946Z,1.000
2023-01-13T03:22:58.891Z,0.900
2023-01-13T03:24:02.354Z,1.000
2023-01-13T03:25:00.585Z,0.900
2023-01-13T03:25:59.233Z,0.800
2023-01-13T03:26:58.855Z,0.800
2023-01-13T03:27:59.383Z,1.000
2023-01-13T03:28:59.232Z,0.700
2023-01-13T03:29:58.966Z,1.000
2023-01-13T03:30:59.933Z,0.800
2023-01-13T03:31:59.532Z,0.800
2023-01-13T03:33:58.539Z,0.900
2023-01-13T03:34:59.116Z,0.800
2023-01-13T03:35:58.835Z,0.700
2023-01-13T03:36:59.344Z,0.800
2023-01-13T03:37:58.864Z,0.700
2023-01-13T03:38:59.479Z,0.900
2023-01-13T03:39:59.047Z,0.900
2023-01-13T03:40:58.670Z,0.600
2023-01-13T03:41:59.242Z,0.700
2023-01-13T03:42:58.935Z,0.700
2023-01-13T03:44:01.557Z,0.900
2023-01-13T03:44:59.287Z,0.800
2023-01-13T03:45:58.858Z,0.700
2023-01-13T03:46:58.565Z,0.600
2023-01-13T03:48:58.862Z,0.800
2023-01-13T03:49:59.478Z,0.700
2023-01-13T03:50:59.129Z,0.700
2023-01-13T03:51:58.753Z,0.700
2023-01-13T03:52:59.404Z,0.900
2023-01-13T03:53:58.959Z,1.000
2023-01-13T03:54:58.463Z,0.800
2023-01-13T03:56:58.533Z,0.600
2023-01-13T03:57:59.434Z,0.900
2023-01-13T03:58:59.097Z,0.700
2023-01-13T03:59:58.663Z,0.800
2023-01-13T04:00:59.503Z,0.800
2023-01-13T04:01:59.624Z,1.100
2023-01-13T04:02:59.400Z,1.000
2023-01-13T04:03:59.433Z,0.800
2023-01-13T04:04:59.251Z,0.800
2023-01-13T04:05:58.852Z,0.700
2023-01-13T04:06:59.635Z,0.800
2023-01-13T04:07:59.306Z,0.800
2023-01-13T04:08:59.366Z,0.900
2023-01-13T04:10:58.653Z,0.800
2023-01-13T04:11:59.238Z,0.600
2023-01-13T04:12:58.865Z,0.600
2023-01-13T04:13:58.703Z,0.700
2023-01-13T04:15:59.243Z,0.800
2023-01-13T04:16:59.165Z,0.800
2023-01-13T04:17:58.783Z,0.800
2023-01-13T04:18:59.424Z,0.800
2023-01-13T04:19:58.995Z,0.800
2023-01-13T04:20:58.687Z,0.600
2023-01-13T04:21:59.347Z,0.700
2023-01-13T04:22:58.875Z,0.600
2023-01-13T04:23:59.516Z,0.700
2023-01-13T04:24:59.124Z,0.800
2023-01-13T04:25:58.707Z,0.700
2023-01-13T04:26:59.247Z,0.600
2023-01-13T04:27:59.021Z,0.600
2023-01-13T04:28:58.775Z,0.900
2023-01-13T04:29:59.463Z,0.700
2023-01-13T04:30:59.244Z,0.800
2023-01-13T04:32:58.538Z,0.700
2023-01-13T04:33:59.379Z,0.700
2023-01-13T04:34:58.929Z,0.800
2023-01-13T04:35:58.784Z,0.700
2023-01-13T04:37:59.007Z,0.900
2023-01-13T04:38:58.616Z,0.700
2023-01-13T04:39:59.089Z,0.700
2023-01-13T04:40:58.664Z,0.800
2023-01-13T04:42:58.745Z,0.700
2023-01-13T04:43:59.316Z,1.000
2023-01-13T04:44:58.862Z,0.900
2023-01-13T04:45:58.640Z,0.700
2023-01-13T04:47:59.165Z,0.700
2023-01-13T04:48:58.728Z,0.700
2023-01-13T04:49:59.267Z,0.900
2023-01-13T04:50:59.060Z,0.800
2023-01-13T04:52:59.189Z,0.600
2023-01-13T04:53:58.839Z,0.600
2023-01-13T04:54:59.418Z,0.600
2023-01-13T04:55:59.020Z,0.700
2023-01-13T04:56:58.523Z,0.900
2023-01-13T04:57:59.351Z,0.600
2023-01-13T04:58:58.939Z,0.600
2023-01-13T04:59:58.556Z,0.800
2023-01-13T05:00:59.222Z,0.800
2023-01-13T05:02:59.340Z,0.800
2023-01-13T05:03:58.890Z,0.900
2023-01-13T05:04:59.714Z,0.600
2023-01-13T05:05:59.299Z,0.900
2023-01-13T05:07:58.632Z,0.800
2023-01-13T05:08:59.283Z,0.900
2023-01-13T05:09:58.995Z,0.700
2023-01-13T05:10:59.674Z,0.800
2023-01-13T05:11:59.261Z,0.900
2023-01-13T05:12:58.923Z,0.800
2023-01-13T05:13:58.466Z,0.600
2023-01-13T05:14:59.006Z,0.800
2023-01-13T05:15:58.799Z,0.900
2023-01-13T05:16:59.431Z,0.500
2023-01-13T05:17:58.899Z,0.900
2023-01-13T05:18:58.581Z,0.800
2023-01-13T05:19:59.283Z,0.800
2023-01-13T05:20:58.876Z,0.900
2023-01-13T05:21:59.523Z,0.700
2023-01-13T05:22:59.151Z,1.000
2023-01-13T05:23:58.863Z,0.800
2023-01-13T05:24:59.561Z,0.800
2023-01-13T05:26:59.623Z,0.900
2023-01-13T05:27:59.297Z,0.800
2023-01-13T05:28:58.969Z,0.600
2023-01-13T05:29:58.600Z,0.900
2023-01-13T05:31:58.989Z,0.900
2023-01-13T05:32:58.597Z,0.800
2023-01-13T05:33:59.299Z,1.000
2023-01-13T05:34:59.018Z,1.100
2023-01-13T05:35:58.635Z,0.800
2023-01-13T05:36:59.146Z,1.300
2023-01-13T05:37:58.729Z,1.100
2023-01-13T05:38:59.451Z,1.100
2023-01-13T05:39:58.986Z,0.800
2023-01-13T05:41:59.358Z,1.100
2023-01-13T05:42:58.914Z,0.900
2023-01-13T05:43:58.463Z,1.400
2023-01-13T05:44:59.186Z,1.100
2023-01-13T05:46:59.635Z,0.800
2023-01-13T05:48:01.543Z,1.000
2023-01-13T05:48:59.062Z,1.100
2023-01-13T05:50:00.185Z,0.800
2023-01-13T05:51:59.396Z,0.800
2023-01-13T05:52:58.913Z,0.600
2023-01-13T05:53:58.532Z,0.600
2023-01-13T05:54:59.402Z,0.800
2023-01-13T05:56:58.783Z,1.100
2023-01-13T05:57:59.337Z,0.800
2023-01-13T05:58:58.933Z,1.100
2023-01-13T05:59:58.571Z,0.700
2023-01-13T06:01:00.097Z,1.100
2023-01-13T06:01:58.971Z,1.000
2023-01-13T06:02:58.667Z,1.100
2023-01-13T06:03:59.512Z,1.100
2023-01-13T06:04:59.353Z,1.100
2023-01-13T06:06:58.641Z,0.900
2023-01-13T06:07:59.218Z,1.100
2023-01-13T06:09:59.361Z,1.100
2023-01-13T06:11:59.383Z,1.200
2023-01-13T06:12:58.886Z,1.200
2023-01-13T06:13:58.489Z,1.400
2023-01-13T06:14:59.042Z,1.300
2023-01-13T06:16:59.363Z,1.500
2023-01-13T06:17:58.976Z,1.400
2023-01-13T06:18:58.533Z,1.400
2023-01-13T06:19:59.136Z,1.600
2023-01-13T06:21:59.175Z,1.400
2023-01-13T06:22:58.723Z,1.700
2023-01-13T06:23:59.296Z,1.500
2023-01-13T06:24:58.799Z,1.600
2023-01-13T06:25:58.504Z,1.500
2023-01-13T06:26:59.047Z,1.500
2023-01-13T06:27:58.696Z,1.600
2023-01-13T06:29:58.714Z,1.600
2023-01-13T06:31:00.395Z,1.500
2023-01-13T06:31:59.119Z,1.500
2023-01-13T06:32:58.714Z,1.100
2023-01-13T06:33:59.291Z,1.500
2023-01-13T06:34:58.913Z,1.300
2023-01-13T06:35:58.472Z,1.400
2023-01-13T06:37:58.606Z,1.300
2023-01-13T06:38:59.202Z,1.300
2023-01-13T06:39:58.861Z,1.600
2023-01-13T06:40:59.531Z,1.300
2023-01-13T06:41:59.067Z,1.200
2023-01-13T06:42:58.708Z,1.300
2023-01-13T06:43:59.312Z,1.300
2023-01-13T06:45:59.359Z,1.400
2023-01-13T06:46:59.225Z,1.100
2023-01-13T06:47:58.707Z,1.500
2023-01-13T06:48:59.247Z,1.500
2023-01-13T06:49:58.807Z,1.200
2023-01-13T06:50:59.434Z,1.400
2023-01-13T06:51:59.051Z,1.300
2023-01-13T06:52:58.576Z,1.500
2023-01-13T06:53:59.080Z,1.500
2023-01-13T06:54:58.759Z,1.400
2023-01-13T06:55:59.317Z,1.300
2023-01-13T06:56:59.000Z,1.200
2023-01-13T06:57:58.616Z,1.300
2023-01-13T06:58:59.162Z,1.100
2023-01-13T06:59:58.705Z,1.200
2023-01-13T07:00:59.791Z,1.200
2023-01-13T07:02:00.256Z,1.400
2023-01-13T07:02:59.432Z,1.500
2023-01-13T07:03:59.167Z,1.200
2023-01-13T07:04:58.708Z,1.200
2023-01-13T07:05:58.402Z,1.600
2023-01-13T07:06:58.962Z,1.700
2023-01-13T07:07:58.499Z,1.700
2023-01-13T07:08:59.091Z,1.600
2023-01-13T07:09:58.678Z,1.500
2023-01-13T07:11:58.878Z,1.400
2023-01-13T07:12:59.457Z,1.300
2023-01-13T07:13:59.021Z,1.500
2023-01-13T07:14:58.608Z,1.300
2023-01-13T07:15:59.291Z,1.300
2023-01-13T07:16:59.005Z,1.400
2023-01-13T07:17:58.582Z,1.500
2023-01-13T07:19:58.682Z,1.600
2023-01-13T07:20:59.307Z,1.900
2023-01-13T07:21:58.863Z,1.400
2023-01-13T07:22:59.571Z,1.500
2023-01-13T07:24:58.956Z,1.400
2023-01-13T07:25:58.644Z,1.200
2023-01-13T07:26:59.283Z,1.500
2023-01-13T07:27:58.837Z,1.600
2023-01-13T07:29:58.996Z,1.500
2023-01-13T07:30:58.710Z,1.500
2023-01-13T07:31:59.635Z,1.300
2023-01-13T07:32:59.269Z,1.600
2023-01-13T07:34:59.403Z,1.500
2023-01-13T07:35:59.220Z,1.300
2023-01-13T07:36:58.891Z,1.300
2023-01-13T07:37:59.425Z,1.300
2023-01-13T07:38:59.266Z,1.400
2023-01-13T07:39:58.975Z,1.300
2023-01-13T07:40:58.726Z,1.500
2023-01-13T07:42:58.946Z,1.600
2023-01-13T07:43:58.540Z,1.600
2023-01-13T07:44:59.250Z,1.600
2023-01-13T07:45:59.132Z,1.600
2023-01-13T07:46:58.915Z,1.600
2023-01-13T07:47:58.551Z,2.000
2023-01-13T07:48:59.193Z,1.800
2023-01-13T07:51:01.988Z,1.700
2023-01-13T07:51:58.719Z,1.400
2023-01-13T07:52:59.317Z,1.500
2023-01-13T07:53:58.952Z,1.700
2023-01-13T07:55:59.543Z,1.700
2023-01-13T07:56:59.252Z,1.400
2023-01-13T07:57:58.824Z,1.500
2023-01-13T07:58:59.411Z,1.400
2023-01-13T07:59:59.103Z,1.500
2023-01-13T08:00:59.036Z,1.400
2023-01-13T08:01:59.337Z,1.700
2023-01-13T08:03:58.999Z,1.400
2023-01-13T08:04:58.659Z,1.600
2023-01-13T08:05:59.452Z,1.200
2023-01-13T08:06:59.109Z,1.500
2023-01-13T08:07:58.702Z,1.700
2023-01-13T08:08:59.377Z,1.400
2023-01-13T08:09:58.982Z,1.400
2023-01-13T08:10:58.618Z,1.300
2023-01-13T08:11:59.395Z,1.000
2023-01-13T08:13:08.798Z,1.500
2023-01-13T08:13:59.338Z,1.300
2023-01-13T08:14:58.919Z,1.500
2023-01-13T08:15:58.785Z,1.500
2023-01-13T08:16:59.701Z,1.400
2023-01-13T08:17:59.486Z,1.300
2023-01-13T08:19:58.927Z,1.500
2023-01-13T08:20:58.879Z,1.400
2023-01-13T08:21:59.502Z,1.600
2023-01-13T08:22:59.187Z,1.600
2023-01-13T08:23:58.914Z,1.300
2023-01-13T08:24:59.104Z,1.400
2023-01-13T08:25:58.857Z,1.700
2023-01-13T08:26:59.845Z,1.600
2023-01-13T08:27:59.575Z,1.600
2023-01-13T08:28:59.281Z,1.500
2023-01-13T08:29:58.972Z,1.600
2023-01-13T08:30:59.102Z,1.300
2023-01-13T08:32:59.425Z,1.500
2023-01-13T08:33:59.086Z,1.700
2023-01-13T08:34:58.819Z,1.600
2023-01-13T08:35:59.580Z,1.400
2023-01-13T08:37:58.991Z,1.700
2023-01-13T08:38:58.858Z,1.400
2023-01-13T08:39:59.494Z,1.500
2023-01-13T08:40:59.299Z,1.600
2023-01-13T08:42:59.595Z,1.300
2023-01-13T08:43:59.329Z,1.500
2023-01-13T08:44:59.031Z,1.600
2023-01-13T08:45:59.043Z,1.500
2023-01-13T08:46:58.862Z,1.600
2023-01-13T08:47:59.571Z,1.200
2023-01-13T08:48:59.681Z,1.500
2023-01-13T08:49:59.430Z,1.300
2023-01-13T08:50:59.360Z,1.300
2023-01-13T08:51:58.920Z,1.700
2023-01-13T08:52:59.504Z,1.600
2023-01-13T08:53:59.051Z,1.600
2023-01-13T08:55:59.563Z,1.300
2023-01-13T08:56:59.338Z,1.600
2023-01-13T08:58:15.138Z,1.400
2023-01-13T08:58:59.436Z,1.800
2023-01-13T09:00:59.117Z,1.600
2023-01-13T09:01:59.851Z,1.800
2023-01-13T09:02:58.740Z,1.500
2023-01-13T09:03:59.565Z,1.700
2023-01-13T09:04:59.437Z,1.800
2023-01-13T09:05:59.066Z,1.800
2023-01-13T09:06:58.693Z,1.800
2023-01-13T09:07:59.410Z,1.600
2023-01-13T09:08:59.127Z,1.900
2023-01-13T09:09:58.848Z,2.000
2023-01-13T09:10:59.607Z,1.600
2023-01-13T09:11:59.342Z,2.000
2023-01-13T09:12:59.086Z,2.000
2023-01-13T09:13:58.826Z,1.900
2023-01-13T09:14:59.589Z,1.900
2023-01-13T09:15:59.717Z,2.200
2023-01-13T09:16:59.629Z,1.900
2023-01-13T09:17:59.315Z,1.700
2023-01-13T09:18:59.453Z,1.800
2023-01-13T09:19:59.061Z,2.100
2023-01-13T09:20:58.875Z,1.900
2023-01-13T09:21:59.569Z,2.000
2023-01-13T09:22:59.160Z,1.600
2023-01-13T09:23:58.851Z,1.800
2023-01-13T09:24:59.491Z,2.100
2023-01-13T09:25:59.233Z,2.000
2023-01-13T09:26:58.900Z,2.100
2023-01-13T09:27:59.597Z,2.000
2023-01-13T09:28:59.355Z,2.100
2023-01-13T09:29:58.976Z,1.900
2023-01-13T09:30:58.787Z,1.800
2023-01-13T09:32:02.122Z,2.600
2023-01-13T09:32:58.770Z,1.800
2023-01-13T09:33:59.449Z,2.200
2023-01-13T09:34:59.144Z,2.200
2023-01-13T09:35:58.786Z,2.100
2023-01-13T09:36:59.428Z,2.000
2023-01-13T09:37:59.075Z,2.500
2023-01-13T09:38:59.014Z,2.100
2023-01-13T09:39:58.683Z,1.300
2023-01-13T09:40:59.408Z,1.900
2023-01-13T09:41:59.165Z,1.500
2023-01-13T09:42:59.058Z,1.300
2023-01-13T09:43:58.850Z,1.200
2023-01-13T09:44:59.480Z,1.400
2023-01-13T09:46:59.020Z,1.400
2023-01-13T09:47:58.683Z,1.200
2023-01-13T09:48:59.444Z,1.000
2023-01-13T09:49:59.063Z,1.400
2023-01-13T09:51:59.759Z,1.500
2023-01-13T09:53:02.279Z,1.200
2023-01-13T09:53:58.885Z,1.100
2023-01-13T09:54:58.621Z,1.400
2023-01-13T09:55:59.227Z,1.300
2023-01-13T09:57:00.089Z,1.500
2023-01-13T09:57:58.835Z,1.300
2023-01-13T09:58:59.429Z,1.000
2023-01-13T09:59:59.008Z,0.800
2023-01-13T10:00:59.010Z,0.900
2023-01-13T10:01:58.802Z,1.000
2023-01-13T10:02:59.494Z,1.000
2023-01-13T10:03:59.447Z,1.000
2023-01-13T10:04:59.262Z,1.000
2023-01-13T10:05:59.097Z,1.000
2023-01-13T10:06:58.846Z,0.900
2023-01-13T10:08:00.907Z,1.400
2023-01-13T10:09:59.112Z,1.300
2023-01-13T10:10:58.754Z,0.700
2023-01-13T10:11:59.393Z,0.900
2023-01-13T10:12:59.059Z,0.900
2023-01-13T10:13:58.966Z,1.200
2023-01-13T10:14:58.616Z,0.800
2023-01-13T10:16:01.393Z,1.000
2023-01-13T10:16:58.665Z,0.900
2023-01-13T10:17:59.387Z,1.100
2023-01-13T10:18:59.105Z,0.800
2023-01-13T10:19:58.761Z,0.900
2023-01-13T10:20:59.415Z,0.800
2023-01-13T10:21:59.312Z,0.900
2023-01-13T10:22:58.953Z,1.000
2023-01-13T10:23:58.656Z,0.900
2023-01-13T10:24:59.294Z,0.900
2023-01-13T10:25:58.939Z,1.300
2023-01-13T10:26:58.642Z,1.600
2023-01-13T10:27:59.388Z,1.200
2023-01-13T10:28:58.956Z,1.400
2023-01-13T10:29:58.619Z,0.700
2023-01-13T10:31:59.327Z,0.800
2023-01-13T10:32:59.016Z,0.600
2023-01-13T10:34:59.290Z,1.000
2023-01-13T10:35:58.928Z,0.800
2023-01-13T10:36:58.599Z,0.900
2023-01-13T10:37:59.275Z,0.900
2023-01-13T10:38:59.618Z,0.900
2023-01-13T10:39:59.306Z,0.900
2023-01-13T10:40:58.973Z,1.000
2023-01-13T10:41:58.626Z,1.100
2023-01-13T10:42:59.422Z,1.000
2023-01-13T10:43:59.119Z,0.900
2023-01-13T10:44:58.799Z,1.100
2023-01-13T10:45:59.600Z,1.300
2023-01-13T10:46:59.446Z,1.200
2023-01-13T10:47:59.100Z,1.000
2023-01-13T10:48:58.715Z,1.000
2023-01-13T10:49:59.337Z,1.200
2023-01-13T10:50:59.167Z,1.100
2023-01-13T10:51:58.959Z,1.100
2023-01-13T10:52:58.784Z,0.900
2023-01-13T10:54:59.111Z,1.000
2023-01-13T10:55:58.948Z,1.200
2023-01-13T10:56:58.690Z,1.100
2023-01-13T10:57:59.423Z,1.100
2023-01-13T10:58:59.100Z,0.900
2023-01-13T11:00:59.508Z,1.200
2023-01-13T11:01:59.824Z,1.200
2023-01-13T11:03:02.584Z,0.800
2023-01-13T11:03:59.503Z,0.600
2023-01-13T11:04:59.276Z,0.900
2023-01-13T11:05:59.009Z,0.900
2023-01-13T11:06:58.645Z,0.800
2023-01-13T11:08:59.025Z,1.100
2023-01-13T11:09:58.698Z,1.100
2023-01-13T11:10:59.437Z,0.900
2023-01-13T11:11:59.157Z,1.100
2023-01-13T11:13:59.523Z,1.000
2023-01-13T11:14:59.203Z,1.000
2023-01-13T11:17:08.544Z,0.900
2023-01-13T11:18:58.978Z,1.200
2023-01-13T11:19:58.655Z,0.900
2023-01-13T11:20:59.417Z,0.900
2023-01-13T11:21:59.223Z,0.800
2023-01-13T11:23:58.779Z,1.000
2023-01-13T11:24:59.452Z,1.100
2023-01-13T11:25:59.145Z,1.100
2023-01-13T11:26:58.836Z,1.200
2023-01-13T11:28:59.321Z,0.800
2023-01-13T11:29:59.075Z,1.000
2023-01-13T11:31:59.715Z,0.900
2023-01-13T11:32:59.339Z,1.200
2023-01-13T11:33:58.992Z,0.700
2023-01-13T11:34:58.676Z,1.100
2023-01-13T11:35:59.503Z,0.900
2023-01-13T11:36:59.165Z,0.800
2023-01-13T11:38:59.374Z,0.900
2023-01-13T11:39:59.095Z,1.000
2023-01-13T11:40:59.050Z,1.100
2023-01-13T11:41:58.753Z,0.800
2023-01-13T11:42:59.463Z,0.800
2023-01-13T11:43:59.121Z,1.200
2023-01-13T11:45:58.927Z,0.900
2023-01-13T11:46:58.851Z,1.000
2023-01-13T11:47:59.714Z,0.800
2023-01-13T11:48:59.367Z,0.900
2023-01-13T11:50:58.813Z,1.000
2023-01-13T11:51:59.572Z,1.100
2023-01-13T11:52:59.348Z,0.900
2023-01-13T11:53:59.106Z,1.100
2023-01-13T11:55:58.645Z,1.200
2023-01-13T11:56:59.484Z,0.800
2023-01-13T11:59:07.451Z,1.000
2023-01-13T11:59:59.133Z,0.900
2023-01-13T12:01:59.344Z,0.900
2023-01-13T12:02:59.274Z,1.000
2023-01-13T12:03:59.193Z,1.100
2023-01-13T12:04:58.822Z,1.500
2023-01-13T12:05:59.444Z,1.200
2023-01-13T12:07:59.084Z,1.300
2023-01-13T12:08:59.114Z,1.100
2023-01-13T12:10:58.741Z,1.100
2023-01-13T12:11:59.541Z,1.300
2023-01-13T12:13:01.834Z,1.200
2023-01-13T12:13:59.771Z,1.200
2023-01-13T12:14:59.719Z,0.900
2023-01-13T12:15:59.644Z,1.500
2023-01-13T12:17:02.787Z,1.100
2023-01-13T12:18:59.367Z,1.200
2023-01-13T12:19:58.945Z,1.400
2023-01-13T12:21:59.418Z,1.100
2023-01-13T12:22:59.080Z,1.300
2023-01-13T12:23:58.663Z,1.500
2023-01-13T12:24:59.355Z,1.300
2023-01-13T12:25:59.091Z,1.300
2023-01-13T12:27:58.685Z,1.600
2023-01-13T12:28:59.642Z,1.300
2023-01-13T12:29:59.331Z,1.200
2023-01-13T12:31:00.481Z,1.200
2023-01-13T12:32:59.204Z,1.100
2023-01-13T12:33:58.831Z,1.200
2023-01-13T12:34:59.476Z,1.200
2023-01-13T12:36:00.577Z,1.100
2023-01-13T12:37:59.279Z,1.200
2023-01-13T12:38:58.999Z,1.600
2023-01-13T12:39:58.658Z,1.600
2023-01-13T12:40:59.427Z,1.600
2023-01-13T12:41:59.101Z,1.400
2023-01-13T12:42:58.730Z,1.300
2023-01-13T12:43:59.383Z,1.300
2023-01-13T12:45:58.969Z,1.300
2023-01-13T12:46:58.777Z,1.600
2023-01-13T12:47:59.450Z,1.200
2023-01-13T12:48:59.129Z,1.000
2023-01-13T12:50:58.851Z,1.200
2023-01-13T12:51:59.595Z,1.400
2023-01-13T12:52:59.245Z,1.100
2023-01-13T12:53:58.967Z,1.400
2023-01-13T12:55:59.269Z,1.400
2023-01-13T12:56:59.166Z,1.500
2023-01-13T12:57:58.796Z,1.200
2023-01-13T12:58:59.518Z,1.300
2023-01-13T12:59:59.099Z,1.400
2023-01-13T13:00:59.095Z,1.300
2023-01-13T13:01:59.444Z,1.400
2023-01-13T13:02:59.875Z,1.500
2023-01-13T13:03:59.556Z,1.100
2023-01-13T13:04:59.826Z,1.500
2023-01-13T13:06:59.283Z,1.400
2023-01-13T13:08:58.691Z,1.300
2023-01-13T13:09:59.357Z,1.800
2023-01-13T13:10:59.001Z,1.500
2023-01-13T13:11:58.973Z,1.600
2023-01-13T13:12:58.696Z,3.600
2023-01-13T13:13:59.367Z,1.800
2023-01-13T13:14:59.606Z,2.100
2023-01-13T13:15:59.024Z,1.300
2023-01-13T13:16:58.913Z,1.700
2023-01-13T13:17:58.608Z,1.300
2023-01-13T13:18:59.331Z,1.300
2023-01-13T13:19:59.005Z,1.400
2023-01-13T13:20:58.904Z,1.200
2023-01-13T13:21:58.850Z,1.400
2023-01-13T13:22:59.574Z,2.000
2023-01-13T13:23:59.251Z,1.800
2023-01-13T13:25:59.465Z,1.800
2023-01-13T13:26:58.884Z,1.500
2023-01-13T13:28:59.251Z,1.700
2023-01-13T13:29:59.078Z,1.700
2023-01-13T13:30:59.015Z,2.000
2023-01-13T13:31:58.843Z,1.900
2023-01-13T13:32:59.479Z,1.700
2023-01-13T13:33:59.144Z,1.300
2023-01-13T13:34:58.866Z,1.300
2023-01-13T13:35:59.684Z,1.500
2023-01-13T13:37:59.031Z,1.700
2023-01-13T13:38:59.048Z,1.600
2023-01-13T13:39:59.005Z,1.500
2023-01-13T13:40:58.832Z,1.600
2023-01-13T13:41:59.940Z,1.600
2023-01-13T13:42:58.545Z,1.700
2023-01-13T13:43:59.147Z,1.800
2023-01-13T13:44:58.812Z,1.300
2023-01-13T13:45:59.774Z,1.700
2023-01-13T13:46:59.550Z,2.100
2023-01-13T13:47:59.251Z,1.800
2023-01-13T13:48:58.930Z,2.100
2023-01-13T13:49:58.610Z,2.100
2023-01-13T13:50:59.354Z,1.900
2023-01-13T13:51:59.116Z,1.800
2023-01-13T13:53:59.590Z,2.100
2023-01-13T13:55:59.104Z,1.800
2023-01-13T13:56:58.934Z,1.200
2023-01-13T13:58:59.368Z,1.400
2023-01-13T14:00:59.085Z,1.800
2023-01-13T14:01:59.681Z,1.600
2023-01-13T14:02:59.360Z,1.400
2023-01-13T14:03:59.299Z,1.600
2023-01-13T14:04:59.293Z,1.300
2023-01-13T14:05:59.035Z,1.400
2023-01-13T14:06:58.805Z,2.000
2023-01-13T14:08:02.171Z,1.800
2023-01-13T14:09:59.000Z,1.500
2023-01-13T14:10:58.819Z,1.600
2023-01-13T14:11:59.628Z,1.500
2023-01-13T14:13:59.079Z,1.700
2023-01-13T14:14:58.723Z,1.500
2023-01-13T14:15:59.729Z,1.400
2023-01-13T14:17:58.997Z,1.600
2023-01-13T14:18:58.762Z,1.600
2023-01-13T14:19:59.506Z,1.800
2023-01-13T14:20:59.409Z,1.700
2023-01-13T14:22:59.042Z,1.900
2023-01-13T14:23:58.721Z,2.000
2023-01-13T14:24:59.625Z,1.900
2023-01-13T14:25:59.344Z,2.300
2023-01-13T14:27:58.662Z,1.900
2023-01-13T14:28:59.360Z,2.400
2023-01-13T14:30:58.917Z,1.800
2023-01-13T14:32:59.359Z,1.900
2023-01-13T14:33:59.019Z,1.500
2023-01-13T14:36:00.711Z,1.600